createdAt,value
2019-01-04T00:01:51.216Z,0.00
2019-01-04T00:04:19.851Z,0.00
2019-01-04T00:06:48.551Z,-0.10
2019-01-04T00:09:17.124Z,-0.10
2019-01-04T00:11:46.062Z,-0.20
2019-01-04T00:14:17.415Z,-0.20
2019-01-04T00:16:45.987Z,-0.30
2019-01-04T00:19:15.394Z,-0.30
2019-01-04T00:21:43.949Z,-0.40
2019-01-04T00:24:12.696Z,-0.30
2019-01-04T00:26:41.271Z,-0.30
2019-01-04T00:29:10.016Z,-0.40
2019-01-04T00:31:38.571Z,-0.40
2019-01-04T00:34:07.327Z,-0.40
2019-01-04T00:36:35.903Z,-0.50
2019-01-04T00:39:07.150Z,-0.50
2019-01-04T00:41:35.716Z,-0.50
2019-01-04T00:44:04.476Z,-0.50
2019-01-04T00:46:33.052Z,-0.50
2019-01-04T00:49:01.881Z,-0.60
2019-01-04T00:51:30.462Z,-0.60
2019-01-04T00:53:59.254Z,-0.60
2019-01-04T00:56:53.878Z,-0.60
2019-01-04T00:59:34.460Z,-0.60
2019-01-04T01:02:21.116Z,-0.60
2019-01-04T01:05:18.779Z,-0.60
2019-01-04T01:08:06.822Z,-0.60
2019-01-04T01:10:59.344Z,-0.60
2019-01-04T01:14:04.153Z,-0.60
2019-01-04T01:16:47.831Z,-0.60
2019-01-04T01:19:43.864Z,-0.60
2019-01-04T01:22:21.359Z,-0.60
2019-01-04T01:25:10.506Z,-0.50
2019-01-04T01:28:17.328Z,-0.50
2019-01-04T01:31:11.537Z,-0.50
2019-01-04T01:33:43.298Z,-0.50
2019-01-04T01:36:42.025Z,-0.40
2019-01-04T01:39:22.690Z,-0.40
2019-01-04T01:42:05.584Z,-0.40
2019-01-04T01:45:05.943Z,-0.40
2019-01-04T01:47:36.852Z,-0.40
2019-01-04T01:50:08.638Z,-0.40
2019-01-04T01:52:39.680Z,-0.40
2019-01-04T01:55:08.316Z,-0.40
2019-01-04T01:57:37.976Z,-0.40
2019-01-04T02:00:07.212Z,-0.40
2019-01-04T02:02:35.786Z,-0.40
2019-01-04T02:05:05.615Z,-0.40
2019-01-04T02:07:34.174Z,-0.40
2019-01-04T02:10:03.248Z,-0.40
2019-01-04T02:12:31.892Z,-0.30
2019-01-04T02:15:01.032Z,-0.20
2019-01-04T02:17:29.586Z,-0.20
2019-01-04T02:19:58.166Z,-0.10
2019-01-04T02:22:27.095Z,0.00
2019-01-04T02:24:55.638Z,0.00
2019-01-04T02:27:24.439Z,0.10
2019-01-04T02:29:53.005Z,0.10
2019-01-04T02:32:22.240Z,0.10
2019-01-04T02:34:50.799Z,0.10
2019-01-04T02:37:19.608Z,0.10
2019-01-04T02:39:48.187Z,0.10
2019-01-04T02:42:16.981Z,0.20
2019-01-04T02:44:45.546Z,0.20
2019-01-04T02:47:14.218Z,0.20
2019-01-04T02:49:42.780Z,0.20
2019-01-04T02:52:11.735Z,0.30
2019-01-04T02:54:40.296Z,0.30
2019-01-04T02:57:09.340Z,0.30
2019-01-04T02:59:37.908Z,0.30
2019-01-04T03:02:08.237Z,0.30
2019-01-04T03:04:36.774Z,0.30
2019-01-04T03:07:05.883Z,0.30
2019-01-04T03:09:34.450Z,0.30
2019-01-04T03:12:03.126Z,0.40
2019-01-04T03:14:31.692Z,0.40
2019-01-04T03:17:00.367Z,0.40
2019-01-04T03:19:28.928Z,0.40
2019-01-04T03:21:57.763Z,0.40
2019-01-04T03:24:26.349Z,0.40
2019-01-04T03:26:55.014Z,0.40
2019-01-04T03:29:23.587Z,0.40
2019-01-04T03:31:52.287Z,0.40
2019-01-04T03:34:20.837Z,0.30
2019-01-04T03:36:49.540Z,0.30
2019-01-04T03:39:18.106Z,0.30
2019-01-04T03:41:46.667Z,0.30
2019-01-04T03:44:15.704Z,0.30
2019-01-04T03:46:44.338Z,0.40
2019-01-04T03:49:13.028Z,0.40
2019-01-04T03:51:41.773Z,0.40
2019-01-04T03:54:10.334Z,0.40
2019-01-04T03:56:39.566Z,0.50
2019-01-04T03:59:08.703Z,0.50
2019-01-04T04:01:37.275Z,0.50
2019-01-04T04:04:05.956Z,0.60
2019-01-04T04:06:34.526Z,0.60
2019-01-04T04:09:04.872Z,0.60
2019-01-04T04:11:33.436Z,0.60
2019-01-04T04:14:02.245Z,0.60
2019-01-04T04:16:30.898Z,0.60
2019-01-04T04:18:59.821Z,0.50
2019-01-04T04:21:28.386Z,0.60
2019-01-04T04:23:58.622Z,0.60
2019-01-04T04:26:27.180Z,0.60
2019-01-04T04:28:56.198Z,0.70
2019-01-04T04:31:24.758Z,0.70
2019-01-04T04:33:53.468Z,0.70
2019-01-04T04:36:22.025Z,0.80
2019-01-04T04:38:50.946Z,0.80
2019-01-04T04:41:19.533Z,0.80
2019-01-04T04:43:48.222Z,0.80
2019-01-04T04:46:16.789Z,0.80
2019-01-04T04:48:45.466Z,0.80
2019-01-04T04:51:14.038Z,0.80
2019-01-04T04:53:42.725Z,0.90
2019-01-04T04:56:11.295Z,0.90
2019-01-04T04:58:40.627Z,0.90
2019-01-04T05:01:09.188Z,0.80
2019-01-04T05:03:37.861Z,0.80
2019-01-04T05:06:06.424Z,0.80
2019-01-04T05:08:35.136Z,0.70
2019-01-04T05:11:03.694Z,0.70
2019-01-04T05:13:32.388Z,0.70
2019-01-04T05:16:01.451Z,0.70
2019-01-04T05:18:30.019Z,0.80
2019-01-04T05:20:58.804Z,0.80
2019-01-04T05:23:27.478Z,0.80
2019-01-04T05:25:56.055Z,0.80
2019-01-04T05:28:24.627Z,0.80
2019-01-04T05:30:56.625Z,0.80
2019-01-04T05:33:25.194Z,0.90
2019-01-04T05:35:53.907Z,0.90
2019-01-04T05:38:22.462Z,0.90
2019-01-04T05:40:51.139Z,1.00
2019-01-04T05:43:19.716Z,1.00
2019-01-04T05:45:48.405Z,1.00
2019-01-04T05:48:16.968Z,1.10
2019-01-04T05:50:46.102Z,1.10
2019-01-04T05:53:14.666Z,1.10
2019-01-04T05:55:43.361Z,1.10
2019-01-04T05:58:12.340Z,1.10
2019-01-04T06:00:41.028Z,1.10
2019-01-04T06:03:09.591Z,1.10
2019-01-04T06:05:38.528Z,1.10
2019-01-04T06:08:07.094Z,1.10
2019-01-04T06:10:35.766Z,1.20
2019-01-04T06:13:04.327Z,1.20
2019-01-04T06:15:33.269Z,1.20
2019-01-04T06:18:01.834Z,1.20
2019-01-04T06:20:30.482Z,1.20
2019-01-04T06:22:59.516Z,1.20
2019-01-04T06:25:28.086Z,1.20
2019-01-04T06:27:56.761Z,1.20
2019-01-04T06:30:25.326Z,1.20
2019-01-04T06:32:54.036Z,1.20
2019-01-04T06:35:22.617Z,1.20
2019-01-04T06:37:51.296Z,1.20
2019-01-04T06:40:19.868Z,1.20
2019-01-04T06:42:48.820Z,1.20
2019-01-04T06:45:17.456Z,1.20
2019-01-04T06:47:46.156Z,1.20
2019-01-04T06:50:14.718Z,1.20
2019-01-04T06:52:43.402Z,1.20
2019-01-04T06:55:21.146Z,1.30
2019-01-04T06:57:50.731Z,1.30
2019-01-04T07:00:19.298Z,1.30
2019-01-04T07:02:47.990Z,1.30
2019-01-04T07:05:16.543Z,1.30
2019-01-04T07:07:45.112Z,1.30
2019-01-04T07:10:13.980Z,1.30
2019-01-04T07:12:42.555Z,1.30
2019-01-04T07:15:11.763Z,1.40
2019-01-04T07:17:40.324Z,1.40
2019-01-04T07:20:09.378Z,1.40
2019-01-04T07:22:38.224Z,1.40
2019-01-04T07:25:07.128Z,1.40
2019-01-04T07:27:36.018Z,1.40
2019-01-04T07:30:06.752Z,1.50
2019-01-04T07:32:35.442Z,1.50
2019-01-04T07:35:05.354Z,1.50
2019-01-04T07:37:33.967Z,1.50
2019-01-04T07:40:02.933Z,1.60
2019-01-04T07:42:31.485Z,1.60
2019-01-04T07:45:00.339Z,1.60
2019-01-04T07:47:28.890Z,1.60
2019-01-04T07:49:57.663Z,1.60
2019-01-04T07:52:26.225Z,1.60
2019-01-04T07:54:55.246Z,1.70
2019-01-04T07:57:24.330Z,1.70
2019-01-04T07:59:53.036Z,1.70
2019-01-04T08:02:39.728Z,1.70
2019-01-04T08:05:14.059Z,1.70
2019-01-04T08:07:42.754Z,1.80
2019-01-04T08:10:11.554Z,1.80
2019-01-04T08:13:00.025Z,1.80
2019-01-04T08:15:28.596Z,1.90
2019-01-04T08:17:57.304Z,1.80
2019-01-04T08:20:25.880Z,1.90
2019-01-04T08:22:54.584Z,1.90
2019-01-04T08:25:23.146Z,1.90
2019-01-04T08:27:51.989Z,2.00
2019-01-04T08:30:20.948Z,2.00
2019-01-04T08:32:50.024Z,2.00
2019-01-04T08:35:18.612Z,2.10
2019-01-04T08:37:47.557Z,2.10
2019-01-04T08:40:16.113Z,2.10
2019-01-04T08:42:44.676Z,2.10
2019-01-04T08:45:13.430Z,2.20
2019-01-04T08:47:42.125Z,2.20
2019-01-04T08:50:11.598Z,2.20
2019-01-04T08:52:40.229Z,2.30
2019-01-04T08:55:09.879Z,2.40
2019-01-04T08:57:38.689Z,2.40
2019-01-04T09:00:12.809Z,2.40
2019-01-04T09:02:41.477Z,2.40
2019-01-04T09:05:10.609Z,2.40
2019-01-04T09:07:41.894Z,2.40
2019-01-04T09:10:11.395Z,2.40
2019-01-04T09:12:40.037Z,2.50
2019-01-04T09:15:09.294Z,2.50
2019-01-04T09:17:37.846Z,2.50
2019-01-04T09:20:09.426Z,2.50
2019-01-04T09:22:38.066Z,2.50
2019-01-04T09:25:08.092Z,2.50
2019-01-04T09:27:36.652Z,2.50
2019-01-04T09:30:08.083Z,2.50
2019-01-04T09:32:37.121Z,2.50
2019-01-04T09:35:08.237Z,2.50
2019-01-04T09:37:36.809Z,2.60
2019-01-04T09:40:08.244Z,2.70
2019-01-04T09:42:37.075Z,2.70
2019-01-04T09:45:07.878Z,2.80
2019-01-04T09:47:36.757Z,2.80
2019-01-04T09:50:07.291Z,2.80
2019-01-04T09:52:36.649Z,2.80
2019-01-04T09:55:06.344Z,2.80
2019-01-04T09:57:37.131Z,2.80
2019-01-04T10:00:08.831Z,2.80
2019-01-04T10:02:37.547Z,2.80
2019-01-04T10:05:08.104Z,2.80
2019-01-04T10:07:37.000Z,2.80
2019-01-04T10:10:08.097Z,2.80
2019-01-04T10:12:38.359Z,2.90
2019-01-04T10:15:12.844Z,2.90
2019-01-04T10:17:42.003Z,2.90
2019-01-04T10:20:11.429Z,2.90
2019-01-04T10:22:40.589Z,3.00
2019-01-04T10:25:09.489Z,3.00
2019-01-04T10:27:38.365Z,3.00
2019-01-04T10:30:07.664Z,3.00
2019-01-04T10:32:36.701Z,3.10
2019-01-04T10:35:10.497Z,3.10
2019-01-04T10:37:35.746Z,3.10
2019-01-04T10:40:10.874Z,3.20
2019-01-04T10:42:35.291Z,3.10
2019-01-04T10:45:05.918Z,3.10
2019-01-04T10:47:34.483Z,3.10
2019-01-04T10:50:03.208Z,3.10
2019-01-04T10:52:31.765Z,3.10
2019-01-04T10:55:00.712Z,3.20
2019-01-04T10:57:29.712Z,3.20
2019-01-04T10:59:58.279Z,3.20
2019-01-04T11:02:27.031Z,3.20
2019-01-04T11:04:55.715Z,3.30
2019-01-04T11:07:24.281Z,3.30
2019-01-04T11:09:53.188Z,3.30
2019-01-04T11:12:21.876Z,3.30
2019-01-04T11:14:50.432Z,3.30
2019-01-04T11:17:19.441Z,3.30
2019-01-04T11:19:48.013Z,3.30
2019-01-04T11:22:53.618Z,3.30
2019-01-04T11:25:45.570Z,3.40
2019-01-04T11:28:18.361Z,3.30
2019-01-04T11:30:50.128Z,3.30
2019-01-04T11:33:18.956Z,3.30
2019-01-04T11:35:53.272Z,3.30
2019-01-04T11:38:36.978Z,3.40
2019-01-04T11:41:11.188Z,3.40
2019-01-04T11:43:57.740Z,3.40
2019-01-04T11:46:47.461Z,3.40
2019-01-04T11:49:25.796Z,3.40
2019-01-04T11:52:00.088Z,3.30
2019-01-04T11:54:28.891Z,3.30
2019-01-04T11:56:57.452Z,3.30
2019-01-04T11:59:27.674Z,3.30
2019-01-04T12:01:56.311Z,3.30
2019-01-04T12:04:25.298Z,3.30
2019-01-04T12:06:53.861Z,3.30
2019-01-04T12:09:22.687Z,3.40
2019-01-04T12:11:52.343Z,3.30
2019-01-04T12:14:21.477Z,3.40
2019-01-04T12:16:50.027Z,3.50
2019-01-04T12:19:18.715Z,3.50
2019-01-04T12:21:47.284Z,3.50
2019-01-04T12:24:16.431Z,3.60
2019-01-04T12:26:45.008Z,3.60
2019-01-04T12:29:13.694Z,3.60
2019-01-04T12:31:45.093Z,3.60
2019-01-04T12:34:16.666Z,3.50
2019-01-04T12:36:44.357Z,3.50
2019-01-04T12:39:13.021Z,3.50
2019-01-04T12:41:41.664Z,3.50
2019-01-04T12:44:10.411Z,3.50
2019-01-04T12:46:39.223Z,3.50
2019-01-04T12:49:07.971Z,3.50
2019-01-04T12:51:36.530Z,3.60
2019-01-04T12:54:05.251Z,3.60
2019-01-04T12:56:33.820Z,3.60
2019-01-04T12:59:02.739Z,3.50
2019-01-04T13:01:31.309Z,3.50
2019-01-04T13:04:01.538Z,3.50
2019-01-04T13:06:30.098Z,3.50
2019-01-04T13:08:58.919Z,3.50
2019-01-04T13:11:27.477Z,3.50
2019-01-04T13:13:56.179Z,3.40
2019-01-04T13:16:24.745Z,3.30
2019-01-04T13:18:53.658Z,3.40
2019-01-04T13:21:22.691Z,3.30
2019-01-04T13:23:51.416Z,3.30
2019-01-04T13:26:19.965Z,3.30
2019-01-04T13:28:49.024Z,3.30
2019-01-04T13:31:18.104Z,3.30
2019-01-04T13:33:46.664Z,3.30
2019-01-04T13:36:15.977Z,3.30
2019-01-04T13:38:44.611Z,3.30
2019-01-04T13:41:13.355Z,3.30
2019-01-04T13:43:41.934Z,3.30
2019-01-04T13:46:10.615Z,3.30
2019-01-04T13:48:39.175Z,3.30
2019-01-04T13:51:08.221Z,3.20
2019-01-04T13:53:36.776Z,3.20
2019-01-04T13:56:05.589Z,3.20
2019-01-04T13:58:34.722Z,3.20
2019-01-04T14:01:03.476Z,3.20
2019-01-04T14:03:32.051Z,3.20
2019-01-04T14:06:01.181Z,3.20
2019-01-04T14:08:30.926Z,3.10
2019-01-04T14:10:59.704Z,3.10
2019-01-04T14:13:28.281Z,3.10
2019-01-04T14:15:57.039Z,3.10
2019-01-04T14:18:25.596Z,3.10
2019-01-04T14:20:54.484Z,3.10
2019-01-04T14:23:28.670Z,3.10
2019-01-04T14:25:55.549Z,3.10
2019-01-04T14:28:24.445Z,3.10
2019-01-04T14:30:53.177Z,3.10
2019-01-04T14:33:21.810Z,3.10
2019-01-04T14:35:50.938Z,3.00
2019-01-04T14:38:19.514Z,3.10
2019-01-04T14:40:48.276Z,3.10
2019-01-04T14:43:16.857Z,3.00
2019-01-04T14:45:45.588Z,3.10
2019-01-04T14:48:14.141Z,3.00
2019-01-04T14:50:43.108Z,3.00
2019-01-04T14:53:11.963Z,3.00
2019-01-04T14:55:41.121Z,3.00
2019-01-04T14:58:09.925Z,3.00
2019-01-04T15:00:38.995Z,3.00
2019-01-04T15:03:07.685Z,3.00
2019-01-04T15:05:36.257Z,3.00
2019-01-04T15:08:05.261Z,3.00
2019-01-04T15:10:33.955Z,3.00
2019-01-04T15:13:02.539Z,3.00
2019-01-04T15:15:31.331Z,3.00
2019-01-04T15:18:00.027Z,3.10
2019-01-04T15:20:29.295Z,3.10
2019-01-04T15:22:57.987Z,3.10
2019-01-04T15:25:26.559Z,3.10
2019-01-04T15:27:55.357Z,3.10
2019-01-04T15:30:23.928Z,3.10
2019-01-04T15:32:53.169Z,3.10
2019-01-04T15:35:21.947Z,3.10
2019-01-04T15:37:50.917Z,3.20
2019-01-04T15:40:19.484Z,3.10
2019-01-04T15:42:48.291Z,3.10
2019-01-04T15:45:16.935Z,3.10
2019-01-04T15:47:45.670Z,3.20
2019-01-04T15:50:14.551Z,3.20
2019-01-04T15:52:43.121Z,3.20
2019-01-04T15:55:11.915Z,3.10
2019-01-04T15:57:40.469Z,3.20
2019-01-04T16:00:12.335Z,3.20
2019-01-04T16:02:40.904Z,3.10
2019-01-04T16:05:10.762Z,3.10
2019-01-04T16:07:39.445Z,3.20
2019-01-04T16:10:09.348Z,3.20
2019-01-04T16:12:38.476Z,3.20
2019-01-04T16:15:09.782Z,3.20
2019-01-04T16:17:38.498Z,3.20
2019-01-04T16:20:11.464Z,3.20
2019-01-04T16:22:40.381Z,3.20
2019-01-04T16:25:09.392Z,3.20
2019-01-04T16:27:38.092Z,3.20
2019-01-04T16:30:09.876Z,3.20
2019-01-04T16:32:38.998Z,3.20
2019-01-04T16:35:08.097Z,3.30
2019-01-04T16:37:36.999Z,3.30
2019-01-04T16:40:07.917Z,3.20
2019-01-04T16:42:37.027Z,3.20
2019-01-04T16:45:06.721Z,3.20
2019-01-04T16:47:35.433Z,3.20
2019-01-04T16:50:07.354Z,3.20
2019-01-04T16:52:36.070Z,3.20
2019-01-04T16:55:05.971Z,3.20
2019-01-04T16:57:35.492Z,3.20
2019-01-04T17:00:06.368Z,3.20
2019-01-04T17:02:35.092Z,3.20
2019-01-04T17:05:03.824Z,3.20
2019-01-04T17:07:32.704Z,3.20
2019-01-04T17:10:01.253Z,3.20
2019-01-04T17:12:30.277Z,3.20
2019-01-04T17:14:58.838Z,3.20
2019-01-04T17:17:27.516Z,3.30
2019-01-04T17:19:56.100Z,3.30
2019-01-04T17:22:24.840Z,3.30
2019-01-04T17:24:53.468Z,3.30
2019-01-04T17:27:22.506Z,3.30
2019-01-04T17:29:51.064Z,3.30
2019-01-04T17:32:20.357Z,3.30
2019-01-04T17:34:48.916Z,3.30
2019-01-04T17:37:17.600Z,3.30
2019-01-04T17:39:46.157Z,3.30
2019-01-04T17:42:14.846Z,3.30
2019-01-04T17:44:43.415Z,3.30
2019-01-04T17:47:12.480Z,3.30
2019-01-04T17:49:41.062Z,3.30
2019-01-04T17:52:09.751Z,3.30
2019-01-04T17:54:41.044Z,3.30
2019-01-04T17:57:09.725Z,3.40
2019-01-04T17:59:38.957Z,3.40
2019-01-04T18:02:07.703Z,3.40
2019-01-04T18:04:36.265Z,3.40
2019-01-04T18:07:05.262Z,3.40
2019-01-04T18:09:34.348Z,3.40
2019-01-04T18:12:03.000Z,3.40
2019-01-04T18:14:31.916Z,3.40
2019-01-04T18:17:00.474Z,3.40
2019-01-04T18:19:29.491Z,3.40
2019-01-04T18:21:58.123Z,3.30
2019-01-04T18:24:27.073Z,3.30
2019-01-04T18:26:55.628Z,3.40
2019-01-04T18:29:24.845Z,3.40
2019-01-04T18:31:53.402Z,3.40
2019-01-04T18:34:22.517Z,3.40
2019-01-04T18:36:51.080Z,3.40
2019-01-04T18:39:20.006Z,3.50
2019-01-04T18:41:48.573Z,3.50
2019-01-04T18:44:17.573Z,3.50
2019-01-04T18:46:46.147Z,3.50
2019-01-04T18:49:14.971Z,3.50
2019-01-04T18:51:43.540Z,3.50
2019-01-04T18:54:12.328Z,3.50
2019-01-04T18:56:40.946Z,3.50
2019-01-04T18:59:10.587Z,3.50
2019-01-04T19:01:39.137Z,3.50
2019-01-04T19:04:07.830Z,3.50
2019-01-04T19:06:37.025Z,3.50
2019-01-04T19:09:07.578Z,3.50
2019-01-04T19:11:36.072Z,3.60
2019-01-04T19:14:05.290Z,3.60
2019-01-04T19:16:33.862Z,3.60
2019-01-04T19:19:02.660Z,3.60
2019-01-04T19:21:32.328Z,3.60
2019-01-04T19:24:00.874Z,3.60
2019-01-04T19:26:29.584Z,3.60
2019-01-04T19:28:58.207Z,3.60
2019-01-04T19:31:27.002Z,3.60
2019-01-04T19:33:55.637Z,3.60
2019-01-04T19:36:24.490Z,3.60
2019-01-04T19:38:53.274Z,3.60
2019-01-04T19:41:21.835Z,3.60
2019-01-04T19:43:50.916Z,3.60
2019-01-04T19:46:19.486Z,3.60
2019-01-04T19:48:48.206Z,3.60
2019-01-04T19:51:19.299Z,3.60
2019-01-04T19:53:48.155Z,3.70
2019-01-04T19:56:16.730Z,3.70
2019-01-04T19:58:45.550Z,3.70
2019-01-04T20:01:14.441Z,3.70
2019-01-04T20:03:43.016Z,3.70
2019-01-04T20:06:26.377Z,3.70
2019-01-04T20:09:48.460Z,3.80
2019-01-04T20:13:13.190Z,3.80
2019-01-04T20:16:02.039Z,3.80
2019-01-04T20:18:48.891Z,3.80
2019-01-04T20:21:35.306Z,3.80
2019-01-04T20:24:08.951Z,3.80
2019-01-04T20:26:54.533Z,3.80
2019-01-04T20:29:41.027Z,3.80
2019-01-04T20:32:11.362Z,3.80
2019-01-04T20:34:41.577Z,3.80
2019-01-04T20:37:23.640Z,3.90
2019-01-04T20:40:10.056Z,3.90
2019-01-04T20:42:53.206Z,3.90
2019-01-04T20:45:35.406Z,3.90
2019-01-04T20:48:08.794Z,3.90
2019-01-04T20:50:45.132Z,4.00
2019-01-04T20:53:31.778Z,3.90
2019-01-04T20:56:20.308Z,4.00
2019-01-04T20:59:07.031Z,4.00
2019-01-04T21:01:49.492Z,4.00
2019-01-04T21:04:28.768Z,4.00
2019-01-04T21:07:15.180Z,4.00
2019-01-04T21:09:45.611Z,4.00
2019-01-04T21:12:21.972Z,4.10
2019-01-04T21:14:53.690Z,4.10
2019-01-04T21:17:26.615Z,4.10
2019-01-04T21:20:12.299Z,4.10
2019-01-04T21:22:51.070Z,4.20
2019-01-04T21:25:33.446Z,4.20
2019-01-04T21:28:06.634Z,4.20
2019-01-04T21:30:37.142Z,4.30
2019-01-04T21:33:07.697Z,4.30
2019-01-04T21:35:46.810Z,4.30
2019-01-04T21:38:26.021Z,4.30
2019-01-04T21:41:02.399Z,4.30
2019-01-04T21:43:32.823Z,4.30
2019-01-04T21:46:04.257Z,4.30
2019-01-04T21:48:50.666Z,4.30
2019-01-04T21:51:21.021Z,4.40
2019-01-04T21:54:09.562Z,4.30
2019-01-04T21:56:48.740Z,4.30
2019-01-04T21:59:21.523Z,4.30
2019-01-04T22:01:58.032Z,4.40
2019-01-04T22:04:44.689Z,4.40
2019-01-04T22:07:26.994Z,4.40
2019-01-04T22:10:09.456Z,4.40
2019-01-04T22:12:42.636Z,4.40
2019-01-04T22:15:22.011Z,4.40
2019-01-04T22:17:52.614Z,4.40
2019-01-04T22:20:22.832Z,4.40
2019-01-04T22:22:59.234Z,4.40
2019-01-04T22:25:40.921Z,4.40
2019-01-04T22:28:20.177Z,4.40
2019-01-04T22:30:56.560Z,4.40
2019-01-04T22:33:43.907Z,4.40
2019-01-04T22:36:20.177Z,4.40
2019-01-04T22:39:06.510Z,4.40
2019-01-04T22:41:45.617Z,4.40
2019-01-04T22:44:32.018Z,4.50
2019-01-04T22:47:18.448Z,4.50
2019-01-04T22:49:57.829Z,4.50
2019-01-04T22:52:46.293Z,4.50
2019-01-04T22:55:25.467Z,4.50
2019-01-04T22:58:04.522Z,4.50
2019-01-04T23:00:48.816Z,4.50
2019-01-04T23:03:28.151Z,4.50
2019-01-04T23:05:58.358Z,4.50
2019-01-04T23:08:32.067Z,4.50
2019-01-04T23:11:13.859Z,4.50
2019-01-04T23:13:44.213Z,4.50
2019-01-04T23:16:23.241Z,4.50
2019-01-04T23:18:59.360Z,4.50
2019-01-04T23:22:01.231Z,4.60
2019-01-04T23:24:48.572Z,4.60
2019-01-04T23:27:24.290Z,4.60
2019-01-04T23:29:54.762Z,4.60
2019-01-04T23:32:38.210Z,4.60
2019-01-04T23:35:20.787Z,4.60
2019-01-04T23:38:08.876Z,4.60
2019-01-04T23:40:56.252Z,4.60
2019-01-04T23:43:44.297Z,4.60
2019-01-04T23:46:14.698Z,4.60
2019-01-04T23:48:45.441Z,4.60
2019-01-04T23:51:18.563Z,4.60
2019-01-04T23:53:54.584Z,4.60
2019-01-04T23:56:27.920Z,4.60
2019-01-04T23:58:58.145Z,4.70
